createdAt,value
2022-11-10T00:01:23.691Z,61.27
2022-11-10T00:03:58.274Z,61.33
2022-11-10T00:06:30.689Z,61.31
2022-11-10T00:09:03.024Z,61.38
2022-11-10T00:11:35.385Z,61.35
2022-11-10T00:14:25.726Z,61.44
2022-11-10T00:17:04.820Z,61.38
2022-11-10T00:19:37.845Z,61.31
2022-11-10T00:22:10.065Z,61.47
2022-11-10T00:24:44.303Z,61.42
2022-11-10T00:27:16.600Z,61.48
2022-11-10T00:29:49.019Z,61.48
2022-11-10T00:32:21.502Z,61.52
2022-11-10T00:34:53.776Z,61.47
2022-11-10T00:37:26.006Z,61.55
2022-11-10T00:39:58.359Z,61.57
2022-11-10T00:42:30.603Z,61.77
2022-11-10T00:45:03.392Z,61.69
2022-11-10T00:47:35.942Z,61.61
2022-11-10T00:50:10.140Z,61.71
2022-11-10T00:52:42.715Z,61.65
2022-11-10T00:55:15.435Z,61.81
2022-11-10T00:57:47.943Z,61.84
2022-11-10T01:00:21.311Z,61.94
2022-11-10T01:02:53.873Z,62.06
2022-11-10T01:05:26.560Z,62.07
2022-11-10T01:08:00.695Z,62.02
2022-11-10T01:10:33.320Z,62.12
2022-11-10T01:13:05.960Z,62.07
2022-11-10T01:15:42.283Z,61.94
2022-11-10T01:18:14.879Z,62.00
2022-11-10T01:20:51.121Z,62.07
2022-11-10T01:23:24.115Z,62.00
2022-11-10T01:26:00.364Z,62.02
2022-11-10T01:28:31.609Z,61.96
2022-11-10T01:31:06.167Z,61.97
2022-11-10T01:33:39.148Z,62.04
2022-11-10T01:36:13.849Z,62.03
2022-11-10T01:38:46.509Z,62.04
2022-11-10T01:41:19.053Z,61.99
2022-11-10T01:43:51.579Z,62.05
2022-11-10T01:46:24.302Z,62.12
2022-11-10T01:49:01.084Z,61.90
2022-11-10T01:51:37.902Z,61.96
2022-11-10T01:54:14.488Z,62.07
2022-11-10T01:56:49.935Z,62.22
2022-11-10T01:59:26.111Z,62.19
2022-11-10T02:02:06.536Z,62.24
2022-11-10T02:04:41.284Z,62.16
2022-11-10T02:07:14.439Z,62.24
2022-11-10T02:09:47.206Z,62.32
2022-11-10T02:12:37.260Z,62.40
2022-11-10T02:15:14.160Z,62.34
2022-11-10T02:17:48.002Z,62.43
2022-11-10T02:20:22.745Z,62.43
2022-11-10T02:22:55.360Z,62.47
2022-11-10T02:25:33.990Z,62.44
2022-11-10T02:28:06.914Z,62.45
2022-11-10T02:30:39.482Z,62.50
2022-11-10T02:33:12.147Z,62.45
2022-11-10T02:35:44.716Z,62.51
2022-11-10T02:38:17.613Z,62.50
2022-11-10T02:40:51.762Z,62.51
2022-11-10T02:43:24.779Z,62.45
2022-11-10T02:45:57.827Z,62.54
2022-11-10T02:48:30.471Z,62.47
2022-11-10T02:51:03.133Z,62.56
2022-11-10T02:53:35.746Z,62.58
2022-11-10T02:56:09.156Z,62.55
2022-11-10T02:58:41.762Z,62.50
2022-11-10T03:01:14.372Z,62.57
2022-11-10T03:03:47.275Z,62.47
2022-11-10T03:06:19.953Z,62.40
2022-11-10T03:08:52.650Z,62.49
2022-11-10T03:11:30.870Z,62.55
2022-11-10T03:14:04.923Z,62.52
2022-11-10T03:16:37.604Z,62.45
2022-11-10T03:19:10.941Z,62.45
2022-11-10T03:21:43.500Z,62.48
2022-11-10T03:24:16.388Z,62.47
2022-11-10T03:26:49.040Z,62.49
2022-11-10T03:29:21.694Z,62.47
2022-11-10T03:31:54.292Z,62.41
2022-11-10T03:34:31.560Z,62.49
2022-11-10T03:37:04.490Z,62.41
2022-11-10T03:39:37.043Z,62.42
2022-11-10T03:42:09.596Z,62.55
2022-11-10T03:44:42.236Z,62.66
2022-11-10T03:47:14.879Z,62.66
2022-11-10T03:49:47.481Z,62.49
2022-11-10T03:52:20.408Z,62.70
2022-11-10T03:54:52.948Z,62.75
2022-11-10T03:57:25.648Z,62.63
2022-11-10T03:59:58.184Z,62.67
2022-11-10T04:02:30.874Z,62.79
2022-11-10T04:05:20.796Z,62.87
2022-11-10T04:08:17.366Z,62.83
2022-11-10T04:10:51.031Z,62.85
2022-11-10T04:13:40.610Z,62.79
2022-11-10T04:16:13.079Z,62.83
2022-11-10T04:18:45.359Z,62.86
2022-11-10T04:21:17.625Z,62.80
2022-11-10T04:23:49.891Z,62.84
2022-11-10T04:26:32.934Z,62.75
2022-11-10T04:29:07.026Z,62.69
2022-11-10T04:31:41.243Z,62.72
2022-11-10T04:34:15.087Z,62.80
2022-11-10T04:36:48.616Z,62.70
2022-11-10T04:39:20.840Z,62.80
2022-11-10T04:41:55.158Z,62.80
2022-11-10T04:44:29.482Z,62.67
2022-11-10T04:47:01.763Z,62.64
2022-11-10T04:49:34.015Z,62.74
2022-11-10T04:52:06.482Z,62.76
2022-11-10T04:54:38.859Z,62.78
2022-11-10T04:57:11.259Z,62.66
2022-11-10T04:59:43.532Z,62.67
2022-11-10T05:02:16.313Z,62.80
2022-11-10T05:04:48.587Z,62.95
2022-11-10T05:07:20.823Z,62.87
2022-11-10T05:09:53.078Z,63.01
2022-11-10T05:12:25.335Z,62.97
2022-11-10T05:14:57.719Z,62.85
2022-11-10T05:17:29.964Z,62.84
2022-11-10T05:20:02.279Z,62.95
2022-11-10T05:22:34.924Z,63.00
2022-11-10T05:25:08.581Z,63.07
2022-11-10T05:27:40.814Z,63.01
2022-11-10T05:30:14.906Z,63.15
2022-11-10T05:32:47.171Z,63.16
2022-11-10T05:35:21.000Z,63.22
2022-11-10T05:37:53.262Z,63.18
2022-11-10T05:40:25.521Z,63.18
2022-11-10T05:42:57.787Z,63.19
2022-11-10T05:45:30.851Z,63.37
2022-11-10T05:48:03.453Z,63.29
2022-11-10T05:50:36.079Z,63.20
2022-11-10T05:53:08.413Z,63.38
2022-11-10T05:55:40.797Z,63.47
2022-11-10T05:58:13.548Z,63.33
2022-11-10T06:00:45.936Z,63.42
2022-11-10T06:03:20.289Z,63.53
2022-11-10T06:05:53.598Z,63.58
2022-11-10T06:08:26.013Z,63.70
2022-11-10T06:10:58.465Z,63.82
2022-11-10T06:13:30.756Z,63.68
2022-11-10T06:16:02.942Z,63.64
2022-11-10T06:18:35.267Z,63.58
2022-11-10T06:21:08.014Z,63.51
2022-11-10T06:23:40.286Z,63.57
2022-11-10T06:26:12.550Z,63.35
2022-11-10T06:28:44.793Z,63.22
2022-11-10T06:31:17.035Z,62.97
2022-11-10T06:33:49.333Z,62.68
2022-11-10T06:36:21.587Z,62.67
2022-11-10T06:38:54.384Z,62.40
2022-11-10T06:41:26.811Z,62.26
2022-11-10T06:43:59.158Z,62.12
2022-11-10T06:46:31.414Z,61.95
2022-11-10T06:49:03.685Z,61.74
2022-11-10T06:51:35.933Z,61.51
2022-11-10T06:54:08.852Z,61.20
2022-11-10T06:56:41.354Z,61.20
2022-11-10T06:59:13.612Z,61.20
2022-11-10T07:01:45.852Z,61.09
2022-11-10T07:04:20.154Z,61.08
2022-11-10T07:06:53.163Z,60.81
2022-11-10T07:09:25.498Z,61.05
2022-11-10T07:11:58.230Z,61.01
2022-11-10T07:14:30.456Z,60.96
2022-11-10T07:17:02.759Z,60.91
2022-11-10T07:19:35.156Z,61.01
2022-11-10T07:22:10.939Z,61.00
2022-11-10T07:24:43.629Z,60.89
2022-11-10T07:27:15.890Z,60.90
2022-11-10T07:29:48.424Z,61.00
2022-11-10T07:32:20.754Z,61.01
2022-11-10T07:34:53.264Z,61.00
2022-11-10T07:37:26.158Z,60.87
2022-11-10T07:39:58.447Z,60.78
2022-11-10T07:42:30.685Z,60.61
2022-11-10T07:45:02.958Z,60.51
2022-11-10T07:47:35.707Z,60.19
2022-11-10T07:50:09.363Z,60.00
2022-11-10T07:52:41.708Z,60.01
2022-11-10T07:55:15.145Z,59.82
2022-11-10T07:57:47.444Z,59.63
2022-11-10T08:00:21.755Z,59.45
2022-11-10T08:02:54.631Z,59.23
2022-11-10T08:05:26.958Z,59.13
2022-11-10T08:08:00.710Z,58.82
2022-11-10T08:10:34.783Z,58.69
2022-11-10T08:13:08.536Z,58.56
2022-11-10T08:15:41.649Z,58.34
2022-11-10T08:18:19.373Z,58.20
2022-11-10T08:20:52.777Z,58.10
2022-11-10T08:23:25.295Z,57.82
2022-11-10T08:26:01.348Z,57.65
2022-11-10T08:28:33.561Z,57.58
2022-11-10T08:31:06.457Z,57.36
2022-11-10T08:33:38.725Z,57.22
2022-11-10T08:36:12.712Z,56.82
2022-11-10T08:38:44.981Z,56.65
2022-11-10T08:41:17.180Z,56.49
2022-11-10T08:43:49.353Z,56.06
2022-11-10T08:46:21.670Z,56.16
2022-11-10T08:48:53.892Z,55.76
2022-11-10T08:51:26.189Z,55.67
2022-11-10T08:53:58.878Z,55.65
2022-11-10T08:56:31.408Z,55.20
2022-11-10T08:59:03.572Z,55.03
2022-11-10T09:01:35.838Z,54.76
2022-11-10T09:04:08.112Z,54.73
2022-11-10T09:06:40.560Z,54.50
2022-11-10T09:09:12.905Z,54.51
2022-11-10T09:11:45.191Z,54.16
2022-11-10T09:14:17.584Z,54.13
2022-11-10T09:16:50.258Z,53.83
2022-11-10T09:19:22.662Z,53.39
2022-11-10T09:21:54.883Z,53.04
2022-11-10T09:24:31.378Z,53.02
2022-11-10T09:27:04.024Z,52.92
2022-11-10T09:29:36.369Z,52.88
2022-11-10T09:32:09.036Z,52.51
2022-11-10T09:34:44.171Z,52.24
2022-11-10T09:37:17.905Z,52.11
2022-11-10T09:39:50.483Z,51.57
2022-11-10T09:42:31.411Z,51.46
2022-11-10T09:45:12.432Z,51.19
2022-11-10T09:47:57.687Z,50.91
2022-11-10T09:50:38.041Z,50.82
2022-11-10T09:53:17.918Z,50.43
2022-11-10T09:55:53.489Z,50.14
2022-11-10T09:58:28.539Z,50.02
2022-11-10T10:01:16.571Z,50.35
2022-11-10T10:03:58.986Z,50.44
2022-11-10T10:06:43.956Z,50.49
2022-11-10T10:09:30.606Z,49.95
2022-11-10T10:12:20.171Z,49.50
2022-11-10T10:15:11.324Z,49.72
2022-11-10T10:17:48.445Z,49.57
2022-11-10T10:20:28.864Z,49.50
2022-11-10T10:23:10.936Z,49.22
2022-11-10T10:25:47.184Z,49.16
2022-11-10T10:28:29.486Z,49.01
2022-11-10T10:31:15.101Z,48.80
2022-11-10T10:33:48.534Z,48.68
2022-11-10T10:36:24.264Z,48.49
2022-11-10T10:39:02.325Z,48.30
2022-11-10T10:41:37.551Z,48.14
2022-11-10T10:44:15.840Z,47.76
2022-11-10T10:46:51.757Z,47.74
2022-11-10T10:49:30.448Z,47.60
2022-11-10T10:52:11.176Z,47.47
2022-11-10T10:54:43.841Z,47.24
2022-11-10T10:57:25.563Z,47.18
2022-11-10T11:00:19.663Z,47.13
2022-11-10T11:03:06.775Z,46.82
2022-11-10T11:05:39.165Z,46.76
2022-11-10T11:08:21.531Z,46.64
2022-11-10T11:10:54.058Z,46.75
2022-11-10T11:13:28.235Z,46.81
2022-11-10T11:16:07.527Z,46.72
2022-11-10T11:18:41.759Z,46.71
2022-11-10T11:21:27.164Z,46.75
2022-11-10T11:24:12.756Z,46.25
2022-11-10T11:26:55.171Z,46.27
2022-11-10T11:29:51.861Z,46.34
2022-11-10T11:32:35.797Z,46.02
2022-11-10T11:35:19.161Z,46.12
2022-11-10T11:38:01.368Z,46.21
2022-11-10T11:40:42.088Z,46.08
2022-11-10T11:43:29.867Z,46.22
2022-11-10T11:46:12.361Z,46.03
2022-11-10T11:49:06.854Z,46.39
2022-11-10T11:51:46.605Z,46.20
2022-11-10T11:54:47.451Z,46.14
2022-11-10T11:57:34.398Z,45.88
2022-11-10T12:00:14.312Z,46.14
2022-11-10T12:03:11.968Z,45.92
2022-11-10T12:05:58.173Z,45.85
2022-11-10T12:08:40.733Z,46.07
2022-11-10T12:11:22.380Z,46.13
2022-11-10T12:14:04.891Z,46.13
2022-11-10T12:16:40.227Z,46.19
2022-11-10T12:19:24.163Z,46.05
2022-11-10T12:22:05.460Z,46.05
2022-11-10T12:24:51.235Z,45.77
2022-11-10T12:27:29.852Z,45.95
2022-11-10T12:30:06.260Z,46.12
2022-11-10T12:32:46.701Z,46.10
2022-11-10T12:35:24.704Z,46.13
2022-11-10T12:38:04.339Z,46.00
2022-11-10T12:40:42.107Z,46.04
2022-11-10T12:43:25.323Z,46.14
2022-11-10T12:46:01.402Z,46.05
2022-11-10T12:48:40.699Z,45.93
2022-11-10T12:51:21.849Z,46.02
2022-11-10T12:53:55.113Z,46.34
2022-11-10T12:56:33.275Z,46.39
2022-11-10T12:59:29.066Z,46.30
2022-11-10T13:02:06.433Z,46.41
2022-11-10T13:04:38.939Z,46.28
2022-11-10T13:07:14.436Z,46.45
2022-11-10T13:09:45.485Z,46.47
2022-11-10T13:12:23.025Z,46.47
2022-11-10T13:14:55.266Z,46.46
2022-11-10T13:17:57.090Z,46.72
2022-11-10T13:20:51.443Z,46.51
2022-11-10T13:23:31.631Z,46.50
2022-11-10T13:26:06.931Z,46.66
2022-11-10T13:29:03.890Z,46.70
2022-11-10T13:31:52.007Z,46.70
2022-11-10T13:34:35.706Z,46.75
2022-11-10T13:37:51.622Z,46.91
2022-11-10T13:40:34.973Z,46.75
2022-11-10T13:43:27.714Z,46.82
2022-11-10T13:46:06.645Z,47.08
2022-11-10T13:49:04.003Z,46.96
2022-11-10T13:51:44.221Z,46.92
2022-11-10T13:54:33.140Z,46.98
2022-11-10T13:57:29.138Z,47.00
2022-11-10T14:00:03.928Z,47.05
2022-11-10T14:02:56.798Z,47.18
2022-11-10T14:06:05.842Z,47.30
2022-11-10T14:08:49.200Z,47.10
2022-11-10T14:11:31.383Z,47.16
2022-11-10T14:14:11.739Z,47.25
2022-11-10T14:16:45.647Z,47.38
2022-11-10T14:19:32.970Z,47.28
2022-11-10T14:22:15.896Z,47.45
2022-11-10T14:24:55.762Z,47.47
2022-11-10T14:27:30.952Z,47.36
2022-11-10T14:30:24.862Z,47.43
2022-11-10T14:33:04.019Z,47.45
2022-11-10T14:35:46.073Z,47.66
2022-11-10T14:38:22.435Z,47.71
2022-11-10T14:40:59.104Z,47.66
2022-11-10T14:43:33.939Z,47.77
2022-11-10T14:46:08.285Z,47.69
2022-11-10T14:48:41.410Z,47.81
2022-11-10T14:51:17.264Z,47.87
2022-11-10T14:53:54.098Z,47.83
2022-11-10T14:56:28.520Z,48.10
2022-11-10T14:59:03.660Z,48.08
2022-11-10T15:01:39.305Z,48.11
2022-11-10T15:04:15.915Z,48.31
2022-11-10T15:06:50.922Z,48.26
2022-11-10T15:09:28.877Z,48.40
2022-11-10T15:12:20.718Z,48.39
2022-11-10T15:15:00.696Z,48.53
2022-11-10T15:17:50.651Z,48.58
2022-11-10T15:20:38.995Z,48.66
2022-11-10T15:23:23.792Z,48.83
2022-11-10T15:25:56.576Z,48.85
2022-11-10T15:28:33.449Z,48.92
2022-11-10T15:31:08.080Z,49.05
2022-11-10T15:33:46.794Z,49.14
2022-11-10T15:36:28.706Z,49.17
2022-11-10T15:39:20.226Z,49.28
2022-11-10T15:41:58.511Z,49.34
2022-11-10T15:44:31.005Z,49.43
2022-11-10T15:47:03.302Z,49.47
2022-11-10T15:49:38.599Z,49.60
2022-11-10T15:52:16.587Z,49.65
2022-11-10T15:54:50.829Z,49.69
2022-11-10T15:57:23.538Z,49.81
2022-11-10T15:59:56.082Z,49.94
2022-11-10T16:02:29.022Z,50.05
2022-11-10T16:05:01.350Z,50.10
2022-11-10T16:07:33.551Z,50.18
2022-11-10T16:10:06.495Z,50.32
2022-11-10T16:12:38.899Z,50.37
2022-11-10T16:15:19.436Z,50.48
2022-11-10T16:17:51.784Z,50.51
2022-11-10T16:20:24.051Z,50.67
2022-11-10T16:22:56.407Z,50.65
2022-11-10T16:25:28.719Z,50.69
2022-11-10T16:28:02.756Z,50.83
2022-11-10T16:30:35.622Z,50.87
2022-11-10T16:33:07.857Z,50.99
2022-11-10T16:35:40.528Z,51.07
2022-11-10T16:38:18.882Z,51.16
2022-11-10T16:40:54.862Z,51.21
2022-11-10T16:43:28.029Z,51.22
2022-11-10T16:46:03.421Z,51.39
2022-11-10T16:48:37.815Z,51.45
2022-11-10T16:51:11.440Z,51.63
2022-11-10T16:53:44.208Z,51.59
2022-11-10T16:56:23.858Z,51.73
2022-11-10T16:58:57.196Z,51.84
2022-11-10T17:01:34.639Z,51.76
2022-11-10T17:04:12.164Z,51.91
2022-11-10T17:06:44.578Z,52.04
2022-11-10T17:09:26.809Z,52.13
2022-11-10T17:12:00.944Z,52.09
2022-11-10T17:14:37.122Z,52.19
2022-11-10T17:17:20.935Z,52.32
2022-11-10T17:19:55.797Z,52.43
2022-11-10T17:22:33.337Z,52.39
2022-11-10T17:25:08.577Z,52.58
2022-11-10T17:27:47.037Z,52.63
2022-11-10T17:30:23.707Z,52.62
2022-11-10T17:33:05.484Z,52.79
2022-11-10T17:35:46.790Z,52.91
2022-11-10T17:38:25.990Z,52.90
2022-11-10T17:41:03.775Z,52.99
2022-11-10T17:43:47.266Z,52.96
2022-11-10T17:46:20.398Z,53.16
2022-11-10T17:49:01.675Z,53.22
2022-11-10T17:51:39.142Z,53.10
2022-11-10T17:54:20.345Z,53.20
2022-11-10T17:56:57.286Z,53.34
2022-11-10T17:59:34.614Z,53.34
2022-11-10T18:02:09.603Z,53.47
2022-11-10T18:04:45.330Z,53.46
2022-11-10T18:07:28.455Z,53.64
2022-11-10T18:10:00.325Z,53.74
2022-11-10T18:12:33.823Z,53.78
2022-11-10T18:15:16.847Z,53.89
2022-11-10T18:18:04.934Z,53.88
2022-11-10T18:20:50.650Z,53.99
2022-11-10T18:23:36.771Z,54.00
2022-11-10T18:26:14.132Z,54.08
2022-11-10T18:28:57.183Z,54.10
2022-11-10T18:31:36.290Z,54.32
2022-11-10T18:34:12.710Z,54.25
2022-11-10T18:36:54.136Z,54.28
2022-11-10T18:39:27.942Z,54.39
2022-11-10T18:42:05.720Z,54.28
2022-11-10T18:44:42.851Z,54.43
2022-11-10T18:47:25.078Z,54.42
2022-11-10T18:50:01.544Z,54.64
2022-11-10T18:52:39.886Z,54.73
2022-11-10T18:55:20.965Z,54.61
2022-11-10T18:57:57.079Z,54.74
2022-11-10T19:00:36.715Z,54.75
2022-11-10T19:03:21.223Z,54.80
2022-11-10T19:05:58.520Z,54.84
2022-11-10T19:08:34.628Z,54.90
2022-11-10T19:11:14.612Z,55.01
2022-11-10T19:13:51.114Z,55.13
2022-11-10T19:16:26.651Z,55.24
2022-11-10T19:19:02.035Z,55.36
2022-11-10T19:21:38.820Z,55.43
2022-11-10T19:24:18.164Z,55.48
2022-11-10T19:27:14.976Z,55.64
2022-11-10T19:29:56.944Z,55.54
2022-11-10T19:32:38.883Z,55.64
2022-11-10T19:35:13.621Z,55.78
2022-11-10T19:37:54.427Z,55.76
2022-11-10T19:40:32.375Z,55.78
2022-11-10T19:43:12.319Z,55.87
2022-11-10T19:46:04.723Z,55.81
2022-11-10T19:48:40.236Z,55.77
2022-11-10T19:51:19.522Z,55.99
2022-11-10T19:54:02.608Z,55.86
2022-11-10T19:56:38.264Z,55.88
2022-11-10T19:59:22.156Z,56.07
2022-11-10T20:02:01.166Z,55.96
2022-11-10T20:04:57.871Z,55.92
2022-11-10T20:07:51.037Z,55.99
2022-11-10T20:10:24.376Z,56.03
2022-11-10T20:12:59.930Z,55.98
2022-11-10T20:15:34.147Z,56.06
2022-11-10T20:18:11.701Z,56.19
2022-11-10T20:20:47.613Z,56.04
2022-11-10T20:23:22.454Z,56.14
2022-11-10T20:26:07.758Z,56.15
2022-11-10T20:28:43.424Z,56.20
2022-11-10T20:31:25.011Z,56.26
2022-11-10T20:33:59.367Z,56.25
2022-11-10T20:36:34.922Z,56.30
2022-11-10T20:39:10.299Z,56.37
2022-11-10T20:41:52.768Z,56.42
2022-11-10T20:44:26.837Z,56.45
2022-11-10T20:46:59.467Z,56.44
2022-11-10T20:49:34.596Z,56.47
2022-11-10T20:52:08.389Z,56.51
2022-11-10T20:54:45.018Z,56.63
2022-11-10T20:57:17.910Z,56.63
2022-11-10T20:59:50.757Z,56.54
2022-11-10T21:02:24.146Z,56.49
2022-11-10T21:04:56.447Z,56.41
2022-11-10T21:07:31.130Z,56.60
2022-11-10T21:10:03.610Z,56.68
2022-11-10T21:12:52.773Z,56.62
2022-11-10T21:15:25.647Z,56.58
2022-11-10T21:18:02.357Z,56.64
2022-11-10T21:20:37.160Z,56.61
2022-11-10T21:23:10.410Z,56.70
2022-11-10T21:25:43.400Z,56.66
2022-11-10T21:28:16.528Z,56.71
2022-11-10T21:30:49.035Z,56.75
2022-11-10T21:33:24.350Z,56.76
2022-11-10T21:35:56.791Z,56.77
2022-11-10T21:38:29.035Z,56.90
2022-11-10T21:41:01.760Z,56.81
2022-11-10T21:43:34.747Z,56.89
2022-11-10T21:46:08.198Z,56.92
2022-11-10T21:48:40.407Z,56.87
2022-11-10T21:51:14.346Z,56.95
2022-11-10T21:53:46.937Z,57.01
2022-11-10T21:56:19.325Z,56.99
2022-11-10T21:58:51.681Z,57.04
2022-11-10T22:01:24.062Z,57.10
2022-11-10T22:03:56.439Z,57.03
2022-11-10T22:06:48.804Z,57.20
2022-11-10T22:09:41.031Z,57.17
2022-11-10T22:12:37.188Z,57.27
2022-11-10T22:15:32.758Z,57.21
2022-11-10T22:18:22.477Z,57.30
2022-11-10T22:20:54.794Z,57.35
2022-11-10T22:23:41.165Z,57.28
2022-11-10T22:26:13.477Z,57.31
2022-11-10T22:28:45.767Z,57.54
2022-11-10T22:31:18.055Z,57.34
2022-11-10T22:33:50.418Z,57.42
2022-11-10T22:36:22.998Z,57.36
2022-11-10T22:38:59.126Z,57.68
2022-11-10T22:41:51.986Z,57.58
2022-11-10T22:44:25.360Z,57.62
2022-11-10T22:46:57.787Z,57.69
2022-11-10T22:49:30.224Z,57.65
2022-11-10T22:52:02.504Z,57.62
2022-11-10T22:54:34.706Z,57.61
2022-11-10T22:57:07.306Z,57.73
2022-11-10T22:59:39.991Z,57.75
2022-11-10T23:02:12.232Z,57.65
2022-11-10T23:04:44.571Z,57.81
2022-11-10T23:07:16.821Z,57.79
2022-11-10T23:09:49.102Z,57.73
2022-11-10T23:12:21.374Z,57.73
2022-11-10T23:14:53.596Z,57.87
2022-11-10T23:17:25.848Z,57.86
2022-11-10T23:19:58.272Z,57.75
2022-11-10T23:22:30.876Z,57.68
2022-11-10T23:25:03.338Z,57.92
2022-11-10T23:27:37.350Z,57.88
2022-11-10T23:30:11.959Z,57.95
2022-11-10T23:32:44.242Z,57.93
2022-11-10T23:35:16.647Z,58.07
2022-11-10T23:37:48.900Z,58.16
2022-11-10T23:40:21.362Z,58.13
2022-11-10T23:42:53.590Z,58.28
2022-11-10T23:45:32.871Z,58.35
2022-11-10T23:48:18.212Z,58.38
2022-11-10T23:50:50.622Z,58.49
2022-11-10T23:53:23.215Z,58.41
2022-11-10T23:56:00.889Z,58.30
2022-11-10T23:58:33.908Z,58.26
